createdAt,value
2017-11-27T00:01:23.909Z,0.19
2017-11-27T00:03:51.635Z,0.11
2017-11-27T00:06:19.378Z,0.23
2017-11-27T00:08:47.454Z,0.19
2017-11-27T00:11:15.179Z,0.18
2017-11-27T00:13:42.991Z,0.20
2017-11-27T00:16:10.707Z,0.25
2017-11-27T00:18:38.460Z,0.25
2017-11-27T00:21:06.267Z,0.21
2017-11-27T00:23:33.986Z,0.22
2017-11-27T00:26:01.880Z,0.24
2017-11-27T00:28:29.590Z,0.25
2017-11-27T00:30:57.446Z,0.21
2017-11-27T00:33:25.170Z,0.26
2017-11-27T00:35:52.860Z,0.08
2017-11-27T00:38:20.823Z,0.04
2017-11-27T00:40:48.565Z,0.09
2017-11-27T00:43:16.289Z,0.12
2017-11-27T00:45:43.999Z,0.23
2017-11-27T00:48:11.753Z,0.23
2017-11-27T00:50:39.433Z,0.16
2017-11-27T00:53:07.734Z,0.10
2017-11-27T00:55:35.520Z,0.09
2017-11-27T00:58:03.250Z,0.23
2017-11-27T01:00:31.044Z,0.37
2017-11-27T01:02:58.757Z,0.45
2017-11-27T01:05:26.498Z,0.42
2017-11-27T01:07:54.168Z,0.44
2017-11-27T01:10:21.926Z,0.36
2017-11-27T01:12:49.643Z,0.41
2017-11-27T01:15:17.368Z,0.40
2017-11-27T01:17:45.079Z,0.34
2017-11-27T01:20:13.006Z,0.31
2017-11-27T01:22:40.673Z,0.18
2017-11-27T01:25:08.372Z,0.23
2017-11-27T01:27:36.087Z,0.28
2017-11-27T01:30:03.941Z,0.33
2017-11-27T01:32:31.662Z,0.28
2017-11-27T01:34:59.418Z,0.14
2017-11-27T01:37:27.115Z,0.21
2017-11-27T01:39:54.865Z,0.26
2017-11-27T01:42:22.627Z,0.26
2017-11-27T01:44:50.429Z,0.31
2017-11-27T01:47:18.128Z,0.23
2017-11-27T01:49:45.932Z,0.17
2017-11-27T01:52:13.670Z,0.09
2017-11-27T01:54:41.484Z,0.06
2017-11-27T01:57:09.747Z,0.09
2017-11-27T01:59:37.418Z,0.20
2017-11-27T02:02:05.180Z,0.17
2017-11-27T02:04:32.890Z,0.20
2017-11-27T02:07:00.674Z,0.24
2017-11-27T02:09:28.416Z,0.22
2017-11-27T02:11:56.148Z,0.24
2017-11-27T02:14:23.847Z,0.27
2017-11-27T02:16:51.605Z,0.28
2017-11-27T02:19:19.311Z,0.27
2017-11-27T02:21:47.135Z,0.28
2017-11-27T02:24:14.849Z,0.24
2017-11-27T02:26:42.592Z,0.25
2017-11-27T02:29:10.357Z,0.26
2017-11-27T02:31:38.688Z,0.26
2017-11-27T02:34:06.419Z,0.21
2017-11-27T02:36:34.218Z,0.27
2017-11-27T02:39:01.936Z,0.29
2017-11-27T02:41:29.877Z,0.26
2017-11-27T02:43:57.630Z,0.29
2017-11-27T02:46:25.308Z,0.22
2017-11-27T02:48:53.145Z,0.20
2017-11-27T02:51:20.899Z,0.24
2017-11-27T02:53:48.672Z,0.27
2017-11-27T02:56:16.425Z,0.23
2017-11-27T02:58:45.482Z,0.22
2017-11-27T03:01:13.252Z,0.24
2017-11-27T03:03:40.961Z,0.25
2017-11-27T03:06:08.732Z,0.48
2017-11-27T03:08:36.451Z,0.39
2017-11-27T03:11:04.235Z,0.34
2017-11-27T03:13:31.921Z,0.31
2017-11-27T03:15:59.709Z,0.32
2017-11-27T03:18:27.465Z,0.30
2017-11-27T03:20:55.228Z,0.18
2017-11-27T03:23:22.948Z,0.19
2017-11-27T03:25:50.719Z,0.19
2017-11-27T03:28:18.477Z,0.09
2017-11-27T03:30:46.217Z,0.06
2017-11-27T03:33:13.986Z,0.09
2017-11-27T03:35:41.785Z,-0.02
2017-11-27T03:38:09.518Z,0.10
2017-11-27T03:40:37.222Z,0.14
2017-11-27T03:43:04.929Z,0.23
2017-11-27T03:45:32.794Z,0.18
2017-11-27T03:48:00.529Z,0.21
2017-11-27T03:50:28.214Z,0.27
2017-11-27T03:52:55.939Z,0.33
2017-11-27T03:55:23.696Z,0.41
2017-11-27T03:57:51.502Z,0.41
2017-11-27T04:00:19.271Z,0.40
2017-11-27T04:02:46.960Z,0.41
2017-11-27T04:05:14.709Z,0.45
2017-11-27T04:07:42.452Z,0.44
2017-11-27T04:10:10.147Z,0.34
2017-11-27T04:12:37.901Z,0.30
2017-11-27T04:15:05.592Z,0.22
2017-11-27T04:17:33.406Z,0.22
2017-11-27T04:20:01.162Z,0.29
2017-11-27T04:22:28.894Z,0.30
2017-11-27T04:24:56.611Z,0.31
2017-11-27T04:27:24.372Z,0.30
2017-11-27T04:29:52.089Z,0.29
2017-11-27T04:32:19.815Z,0.34
2017-11-27T04:34:47.571Z,0.34
2017-11-27T04:37:15.317Z,0.36
2017-11-27T04:39:43.121Z,0.35
2017-11-27T04:42:10.843Z,0.32
2017-11-27T04:44:38.584Z,0.31
2017-11-27T04:47:06.319Z,0.30
2017-11-27T04:49:34.119Z,0.24
2017-11-27T04:52:01.908Z,0.26
2017-11-27T04:54:29.651Z,0.28
2017-11-27T04:56:57.393Z,0.20
2017-11-27T04:59:25.098Z,0.21
2017-11-27T05:01:52.830Z,0.23
2017-11-27T05:04:20.584Z,0.26
2017-11-27T05:06:48.430Z,0.28
2017-11-27T05:09:16.177Z,0.27
2017-11-27T05:11:43.884Z,0.27
2017-11-27T05:14:11.621Z,0.36
2017-11-27T05:16:39.333Z,0.39
2017-11-27T05:19:07.099Z,0.35
2017-11-27T05:21:34.841Z,0.32
2017-11-27T05:24:02.602Z,0.34
2017-11-27T05:26:30.367Z,0.40
2017-11-27T05:28:58.211Z,0.36
2017-11-27T05:31:25.983Z,0.31
2017-11-27T05:33:53.672Z,0.31
2017-11-27T05:36:21.360Z,0.30
2017-11-27T05:38:49.140Z,0.39
2017-11-27T05:41:16.807Z,0.23
2017-11-27T05:43:44.572Z,0.30
2017-11-27T05:46:12.268Z,0.27
2017-11-27T05:48:39.940Z,0.29
2017-11-27T05:51:07.819Z,0.27
2017-11-27T05:53:35.559Z,0.30
2017-11-27T05:56:03.315Z,0.20
2017-11-27T05:58:30.970Z,0.21
2017-11-27T06:00:58.754Z,0.30
2017-11-27T06:03:26.423Z,0.24
2017-11-27T06:05:54.122Z,0.30
2017-11-27T06:08:21.864Z,0.32
2017-11-27T06:10:49.564Z,0.20
2017-11-27T06:13:17.286Z,0.21
2017-11-27T06:15:44.977Z,0.19
2017-11-27T06:18:12.651Z,0.20
2017-11-27T06:20:40.373Z,0.17
2017-11-27T06:23:08.117Z,0.20
2017-11-27T06:25:35.849Z,0.26
2017-11-27T06:28:03.536Z,0.27
2017-11-27T06:30:31.234Z,0.24
2017-11-27T06:32:59.606Z,0.24
2017-11-27T06:35:27.308Z,0.24
2017-11-27T06:37:55.062Z,0.26
2017-11-27T06:40:22.948Z,0.34
2017-11-27T06:42:50.801Z,0.25
2017-11-27T06:45:18.506Z,0.22
2017-11-27T06:47:46.183Z,0.28
2017-11-27T06:50:14.059Z,0.30
2017-11-27T06:52:42.724Z,0.21
2017-11-27T06:55:10.525Z,0.19
2017-11-27T06:57:39.187Z,0.25
2017-11-27T07:00:06.901Z,0.37
2017-11-27T07:02:34.696Z,0.34
2017-11-27T07:05:02.432Z,0.42
2017-11-27T07:07:31.187Z,0.47
2017-11-27T07:09:58.945Z,0.51
2017-11-27T07:12:26.764Z,0.60
2017-11-27T07:14:54.722Z,0.61
2017-11-27T07:17:22.414Z,0.58
2017-11-27T07:19:50.077Z,0.64
2017-11-27T07:22:17.829Z,0.73
2017-11-27T07:24:45.538Z,0.75
2017-11-27T07:27:13.253Z,0.80
2017-11-27T07:29:40.952Z,0.86
2017-11-27T07:32:08.739Z,0.89
2017-11-27T07:34:36.474Z,1.01
2017-11-27T07:37:04.846Z,1.06
2017-11-27T07:39:38.081Z,1.17
2017-11-27T07:42:05.817Z,0.96
2017-11-27T07:44:33.578Z,0.87
2017-11-27T07:47:01.416Z,0.72
2017-11-27T07:49:29.195Z,0.85
2017-11-27T07:51:56.890Z,1.21
2017-11-27T07:54:24.709Z,1.09
2017-11-27T07:56:52.447Z,1.12
2017-11-27T07:59:20.184Z,1.16
2017-11-27T08:01:47.977Z,1.20
2017-11-27T08:04:15.688Z,1.35
2017-11-27T08:06:43.517Z,1.47
2017-11-27T08:09:11.280Z,2.06
2017-11-27T08:11:38.977Z,1.99
2017-11-27T08:14:06.849Z,1.91
2017-11-27T08:16:34.811Z,1.83
2017-11-27T08:19:02.591Z,1.92
2017-11-27T08:21:30.352Z,2.00
2017-11-27T08:23:58.063Z,2.05
2017-11-27T08:26:25.892Z,2.12
2017-11-27T08:28:53.694Z,2.07
2017-11-27T08:31:21.523Z,2.36
2017-11-27T08:33:49.253Z,2.43
2017-11-27T08:36:16.957Z,2.18
2017-11-27T08:38:45.468Z,1.72
2017-11-27T08:41:13.178Z,1.52
2017-11-27T08:43:41.293Z,1.64
2017-11-27T08:46:09.092Z,1.87
2017-11-27T08:48:36.917Z,2.41
2017-11-27T08:51:04.744Z,2.69
2017-11-27T08:53:32.462Z,2.86
2017-11-27T08:56:01.304Z,3.10
2017-11-27T08:58:29.087Z,2.75
2017-11-27T09:00:56.835Z,2.82
2017-11-27T09:03:24.592Z,2.82
2017-11-27T09:05:52.393Z,2.83
2017-11-27T09:08:20.118Z,2.70
2017-11-27T09:10:47.841Z,2.46
2017-11-27T09:13:15.660Z,2.70
2017-11-27T09:15:43.360Z,2.33
2017-11-27T09:18:11.188Z,2.70
2017-11-27T09:20:39.054Z,2.54
2017-11-27T09:23:06.780Z,2.85
2017-11-27T09:25:34.518Z,2.79
2017-11-27T09:28:02.269Z,2.83
2017-11-27T09:30:30.071Z,3.07
2017-11-27T09:32:57.791Z,3.18
2017-11-27T09:35:25.548Z,3.52
2017-11-27T09:37:53.383Z,3.90
2017-11-27T09:40:21.140Z,3.59
2017-11-27T09:42:48.860Z,3.31
2017-11-27T09:45:16.831Z,3.44
2017-11-27T09:47:44.563Z,4.25
2017-11-27T09:50:12.357Z,4.63
2017-11-27T09:52:40.091Z,5.04
2017-11-27T09:55:10.011Z,4.59
2017-11-27T09:57:38.028Z,4.03
2017-11-27T10:00:05.961Z,3.97
2017-11-27T10:02:33.726Z,4.20
2017-11-27T10:05:01.477Z,4.45
2017-11-27T10:07:29.751Z,4.57
2017-11-27T10:09:57.504Z,4.33
2017-11-27T10:12:25.205Z,4.28
2017-11-27T10:14:53.442Z,4.27
2017-11-27T10:17:21.193Z,4.33
2017-11-27T10:19:48.894Z,4.35
2017-11-27T10:22:16.772Z,4.25
2017-11-27T10:24:44.532Z,4.33
2017-11-27T10:27:12.283Z,4.22
2017-11-27T10:29:39.995Z,4.17
2017-11-27T10:32:07.822Z,4.35
2017-11-27T10:34:35.578Z,4.35
2017-11-27T10:37:03.284Z,4.67
2017-11-27T10:39:31.075Z,5.14
2017-11-27T10:41:58.826Z,5.88
2017-11-27T10:44:26.530Z,6.31
2017-11-27T10:46:54.302Z,7.00
2017-11-27T10:49:22.016Z,7.30
2017-11-27T10:51:49.798Z,7.52
2017-11-27T10:54:17.552Z,7.62
2017-11-27T10:56:45.354Z,7.04
2017-11-27T10:59:13.070Z,7.52
2017-11-27T11:01:40.812Z,7.41
2017-11-27T11:04:08.550Z,6.13
2017-11-27T11:06:36.314Z,6.11
2017-11-27T11:09:04.202Z,5.41
2017-11-27T11:11:31.965Z,6.38
2017-11-27T11:13:59.714Z,5.59
2017-11-27T11:16:27.455Z,5.29
2017-11-27T11:18:55.228Z,4.74
2017-11-27T11:21:23.035Z,4.61
2017-11-27T11:23:50.811Z,4.57
2017-11-27T11:26:18.488Z,4.22
2017-11-27T11:28:46.224Z,4.63
2017-11-27T11:31:13.938Z,4.89
2017-11-27T11:33:41.723Z,4.74
2017-11-27T11:36:09.434Z,4.97
2017-11-27T11:38:37.184Z,4.53
2017-11-27T11:41:04.950Z,4.58
2017-11-27T11:43:32.655Z,4.42
2017-11-27T11:46:00.408Z,4.65
2017-11-27T11:48:28.137Z,4.32
2017-11-27T11:50:55.909Z,3.79
2017-11-27T11:53:23.727Z,3.98
2017-11-27T11:55:52.327Z,3.93
2017-11-27T11:58:20.215Z,4.41
2017-11-27T12:00:48.058Z,4.41
2017-11-27T12:03:16.027Z,4.68
2017-11-27T12:05:43.954Z,4.93
2017-11-27T12:08:11.636Z,4.67
2017-11-27T12:10:39.339Z,4.82
2017-11-27T12:13:07.126Z,4.91
2017-11-27T12:15:34.953Z,4.85
2017-11-27T12:18:02.696Z,4.99
2017-11-27T12:20:30.534Z,4.91
2017-11-27T12:22:58.325Z,4.91
2017-11-27T12:25:26.014Z,4.24
2017-11-27T12:27:53.777Z,4.26
2017-11-27T12:30:21.553Z,4.38
2017-11-27T12:32:49.333Z,4.53
2017-11-27T12:35:17.113Z,4.46
2017-11-27T12:37:44.875Z,4.49
2017-11-27T12:40:12.662Z,4.58
2017-11-27T12:42:40.444Z,4.34
2017-11-27T12:45:08.201Z,4.39
2017-11-27T12:47:36.016Z,4.40
2017-11-27T12:50:03.838Z,4.16
2017-11-27T12:52:33.612Z,4.38
2017-11-27T12:55:01.428Z,4.53
2017-11-27T12:57:29.141Z,4.57
2017-11-27T12:59:56.914Z,4.53
2017-11-27T13:02:24.660Z,4.63
2017-11-27T13:04:52.465Z,4.72
2017-11-27T13:07:20.225Z,4.81
2017-11-27T13:09:49.057Z,5.02
2017-11-27T13:12:16.922Z,5.20
2017-11-27T13:14:44.707Z,4.85
2017-11-27T13:17:12.487Z,4.88
2017-11-27T13:19:40.627Z,4.70
2017-11-27T13:22:08.337Z,4.72
2017-11-27T13:24:36.081Z,4.64
2017-11-27T13:27:03.829Z,4.69
2017-11-27T13:29:31.577Z,4.38
2017-11-27T13:31:59.639Z,4.16
2017-11-27T13:34:27.408Z,4.24
2017-11-27T13:36:55.131Z,4.13
2017-11-27T13:39:22.859Z,4.17
2017-11-27T13:41:50.555Z,4.28
2017-11-27T13:44:18.341Z,4.17
2017-11-27T13:46:46.368Z,4.23
2017-11-27T13:49:14.171Z,4.39
2017-11-27T13:51:42.999Z,4.25
2017-11-27T13:54:10.779Z,4.26
2017-11-27T13:56:38.471Z,4.14
2017-11-27T13:59:06.244Z,4.03
2017-11-27T14:01:34.058Z,3.93
2017-11-27T14:04:01.826Z,4.02
2017-11-27T14:06:29.755Z,3.93
2017-11-27T14:08:57.622Z,4.14
2017-11-27T14:11:25.327Z,3.89
2017-11-27T14:13:53.189Z,3.70
2017-11-27T14:16:20.960Z,3.53
2017-11-27T14:18:48.662Z,3.43
2017-11-27T14:21:16.533Z,3.61
2017-11-27T14:23:44.258Z,3.53
2017-11-27T14:26:13.136Z,3.55
2017-11-27T14:28:40.961Z,3.26
2017-11-27T14:31:08.773Z,3.18
2017-11-27T14:33:37.354Z,2.83
2017-11-27T14:36:05.062Z,2.79
2017-11-27T14:38:32.900Z,2.73
2017-11-27T14:41:00.852Z,2.83
2017-11-27T14:43:28.589Z,2.78
2017-11-27T14:45:56.420Z,2.64
2017-11-27T14:48:24.289Z,2.58
2017-11-27T14:50:52.135Z,2.69
2017-11-27T14:53:19.969Z,2.51
2017-11-27T14:55:47.790Z,2.43
2017-11-27T14:58:15.587Z,2.32
2017-11-27T15:00:43.369Z,2.28
2017-11-27T15:03:11.133Z,2.18
2017-11-27T15:05:38.888Z,1.98
2017-11-27T15:08:06.746Z,2.07
2017-11-27T15:10:34.493Z,1.98
2017-11-27T15:13:02.378Z,2.08
2017-11-27T15:15:30.188Z,2.12
2017-11-27T15:17:58.158Z,2.08
2017-11-27T15:20:26.067Z,2.05
2017-11-27T15:22:53.983Z,2.11
2017-11-27T15:25:21.849Z,2.13
2017-11-27T15:27:50.886Z,2.09
2017-11-27T15:30:18.698Z,1.97
2017-11-27T15:32:46.584Z,1.98
2017-11-27T15:35:14.513Z,1.85
2017-11-27T15:37:42.387Z,1.49
2017-11-27T15:40:10.291Z,1.67
2017-11-27T15:42:39.501Z,1.59
2017-11-27T15:45:07.671Z,1.54
2017-11-27T15:47:35.548Z,1.54
2017-11-27T15:50:03.363Z,1.49
2017-11-27T15:52:31.281Z,1.46
2017-11-27T15:54:59.771Z,1.45
2017-11-27T15:57:27.532Z,1.49
2017-11-27T15:59:56.308Z,1.55
2017-11-27T16:02:24.171Z,1.53
2017-11-27T16:04:52.065Z,1.55
2017-11-27T16:07:19.978Z,1.57
2017-11-27T16:09:47.786Z,1.54
2017-11-27T16:12:15.637Z,1.51
2017-11-27T16:14:43.467Z,1.51
2017-11-27T16:17:11.221Z,1.47
2017-11-27T16:19:38.981Z,1.47
2017-11-27T16:22:06.811Z,1.39
2017-11-27T16:24:34.561Z,1.37
2017-11-27T16:27:02.394Z,1.27
2017-11-27T16:29:30.164Z,1.27
2017-11-27T16:31:57.943Z,1.23
2017-11-27T16:34:25.776Z,1.20
2017-11-27T16:36:53.909Z,0.94
2017-11-27T16:39:21.769Z,0.84
2017-11-27T16:41:50.858Z,0.86
2017-11-27T16:44:18.669Z,0.80
2017-11-27T16:46:46.479Z,0.86
2017-11-27T16:49:14.360Z,0.81
2017-11-27T16:51:42.145Z,0.68
2017-11-27T16:54:09.997Z,0.61
2017-11-27T16:56:37.775Z,0.68
2017-11-27T16:59:06.854Z,0.62
2017-11-27T17:01:34.683Z,0.40
2017-11-27T17:04:02.490Z,0.36
2017-11-27T17:06:30.351Z,0.44
2017-11-27T17:08:58.195Z,0.37
2017-11-27T17:11:25.931Z,0.26
2017-11-27T17:13:53.755Z,0.25
2017-11-27T17:16:21.535Z,0.25
2017-11-27T17:18:49.360Z,0.04
2017-11-27T17:21:17.084Z,0.07
2017-11-27T17:23:44.935Z,0.08
2017-11-27T17:26:12.732Z,-0.08
2017-11-27T17:28:40.917Z,-0.09
2017-11-27T17:31:08.803Z,-0.22
2017-11-27T17:33:36.685Z,-0.18
2017-11-27T17:36:05.100Z,-0.11
2017-11-27T17:38:32.919Z,-0.21
2017-11-27T17:41:03.025Z,-0.07
2017-11-27T17:43:30.836Z,-0.17
2017-11-27T17:45:58.643Z,-0.24
2017-11-27T17:48:26.543Z,-0.24
2017-11-27T17:50:54.507Z,-0.43
2017-11-27T17:53:22.382Z,-0.35
2017-11-27T17:55:50.327Z,-0.46
2017-11-27T17:58:18.156Z,-0.47
2017-11-27T18:00:45.965Z,-0.50
2017-11-27T18:03:13.862Z,-0.39
2017-11-27T18:05:41.670Z,-0.48
2017-11-27T18:08:09.470Z,-0.42
2017-11-27T18:10:37.331Z,-0.46
2017-11-27T18:13:05.175Z,-0.30
2017-11-27T18:15:33.701Z,-0.35
2017-11-27T18:18:01.582Z,-0.40
2017-11-27T18:20:29.398Z,-0.56
2017-11-27T18:22:57.642Z,-0.47
2017-11-27T18:25:25.496Z,-0.39
2017-11-27T18:27:53.411Z,-0.37
2017-11-27T18:30:21.564Z,-0.57
2017-11-27T18:32:49.484Z,-0.66
2017-11-27T18:35:17.365Z,-0.75
2017-11-27T18:37:45.300Z,-0.78
2017-11-27T18:40:13.134Z,-0.77
2017-11-27T18:42:40.903Z,-0.84
2017-11-27T18:45:09.549Z,-0.72
2017-11-27T18:47:37.375Z,-0.71
2017-11-27T18:50:05.822Z,-0.73
2017-11-27T18:52:34.652Z,-0.78
2017-11-27T18:55:02.416Z,-0.84
2017-11-27T18:57:30.363Z,-0.89
2017-11-27T18:59:58.227Z,-0.89
2017-11-27T19:02:26.261Z,-0.83
2017-11-27T19:04:54.127Z,-0.94
2017-11-27T19:07:21.881Z,-0.96
2017-11-27T19:09:50.461Z,-0.94
2017-11-27T19:12:18.390Z,-0.93
2017-11-27T19:14:46.396Z,-1.00
2017-11-27T19:17:15.133Z,-1.03
2017-11-27T19:19:45.075Z,-1.03
2017-11-27T19:22:14.561Z,-1.06
2017-11-27T19:24:43.942Z,-1.11
2017-11-27T19:27:13.890Z,-1.14
2017-11-27T19:29:42.204Z,-1.18
2017-11-27T19:32:11.268Z,-1.22
2017-11-27T19:34:41.865Z,-1.26
2017-11-27T19:37:10.360Z,-1.38
2017-11-27T19:39:42.937Z,-1.54
2017-11-27T19:42:12.028Z,-1.60
2017-11-27T19:44:42.860Z,-1.56
2017-11-27T19:47:11.164Z,-1.59
2017-11-27T19:49:39.213Z,-1.72
2017-11-27T19:52:07.137Z,-1.70
2017-11-27T19:54:35.305Z,-1.74
2017-11-27T19:57:03.295Z,-1.80
2017-11-27T19:59:31.557Z,-1.81
2017-11-27T20:01:59.432Z,-1.89
2017-11-27T20:04:27.331Z,-1.98
2017-11-27T20:06:56.503Z,-1.93
2017-11-27T20:09:24.344Z,-1.83
2017-11-27T20:11:52.671Z,-1.93
2017-11-27T20:14:20.588Z,-2.01
2017-11-27T20:16:48.405Z,-1.97
2017-11-27T20:19:16.349Z,-1.90
2017-11-27T20:21:45.493Z,-1.81
2017-11-27T20:24:13.559Z,-1.84
2017-11-27T20:26:41.471Z,-1.84
2017-11-27T20:29:10.256Z,-1.87
2017-11-27T20:31:38.166Z,-2.01
2017-11-27T20:34:06.386Z,-1.96
2017-11-27T20:36:34.347Z,-1.97
2017-11-27T20:39:02.519Z,-2.00
2017-11-27T20:41:31.235Z,-2.01
2017-11-27T20:43:59.023Z,-2.07
2017-11-27T20:46:26.864Z,-2.48
2017-11-27T20:48:54.657Z,-2.52
2017-11-27T20:51:22.422Z,-2.39
2017-11-27T20:53:50.370Z,-2.37
2017-11-27T20:56:18.364Z,-2.34
2017-11-27T20:58:46.329Z,-2.42
2017-11-27T21:01:14.207Z,-2.50
2017-11-27T21:03:41.968Z,-2.44
2017-11-27T21:06:09.784Z,-2.49
2017-11-27T21:08:37.861Z,-2.49
2017-11-27T21:11:05.676Z,-2.54
2017-11-27T21:13:33.441Z,-2.66
2017-11-27T21:16:02.311Z,-2.63
2017-11-27T21:18:30.143Z,-2.78
2017-11-27T21:20:57.893Z,-2.62
2017-11-27T21:23:25.670Z,-2.64
2017-11-27T21:25:53.382Z,-2.59
2017-11-27T21:28:21.220Z,-2.65
2017-11-27T21:30:49.019Z,-2.76
2017-11-27T21:33:16.735Z,-2.79
2017-11-27T21:35:44.626Z,-2.77
2017-11-27T21:38:12.417Z,-2.73
2017-11-27T21:40:40.255Z,-2.69
2017-11-27T21:43:08.866Z,-2.74
2017-11-27T21:45:36.583Z,-2.68
2017-11-27T21:48:04.410Z,-2.67
2017-11-27T21:50:32.433Z,-2.72
2017-11-27T21:53:00.281Z,-2.72
2017-11-27T21:55:28.021Z,-2.80
2017-11-27T21:57:55.821Z,-2.88
2017-11-27T22:00:23.610Z,-2.98
2017-11-27T22:02:51.370Z,-2.99
2017-11-27T22:05:19.117Z,-2.96
2017-11-27T22:07:46.890Z,-2.96
2017-11-27T22:10:14.810Z,-2.86
2017-11-27T22:12:42.935Z,-3.12
2017-11-27T22:15:10.708Z,-3.20
2017-11-27T22:17:38.487Z,-3.04
2017-11-27T22:20:06.226Z,-2.96
2017-11-27T22:22:33.952Z,-2.88
2017-11-27T22:25:01.767Z,-2.90
2017-11-27T22:27:29.527Z,-2.85
2017-11-27T22:29:57.264Z,-2.94
2017-11-27T22:32:25.001Z,-2.93
2017-11-27T22:34:52.724Z,-2.93
2017-11-27T22:37:21.193Z,-2.91
2017-11-27T22:39:48.962Z,-2.93
2017-11-27T22:42:16.731Z,-2.90
2017-11-27T22:44:44.546Z,-2.90
2017-11-27T22:47:12.328Z,-2.83
2017-11-27T22:49:40.136Z,-2.80
2017-11-27T22:52:07.919Z,-2.71
2017-11-27T22:54:35.691Z,-2.61
2017-11-27T22:57:03.550Z,-2.55
2017-11-27T22:59:31.248Z,-2.54
2017-11-27T23:01:59.017Z,-2.70
2017-11-27T23:04:26.767Z,-2.59
2017-11-27T23:06:54.579Z,-2.60
2017-11-27T23:09:22.327Z,-2.60
2017-11-27T23:11:50.134Z,-2.55
2017-11-27T23:14:18.061Z,-2.43
2017-11-27T23:16:45.826Z,-2.27
2017-11-27T23:19:13.665Z,-2.34
2017-11-27T23:21:41.434Z,-2.54
2017-11-27T23:24:09.234Z,-2.81
2017-11-27T23:26:37.081Z,-2.92
2017-11-27T23:29:04.825Z,-2.97
2017-11-27T23:31:32.655Z,-2.90
2017-11-27T23:34:00.395Z,-2.84
2017-11-27T23:36:28.140Z,-2.81
2017-11-27T23:38:55.927Z,-2.70
2017-11-27T23:41:23.678Z,-2.60
2017-11-27T23:43:51.515Z,-2.50
2017-11-27T23:46:19.323Z,-2.48
2017-11-27T23:48:47.018Z,-2.40
2017-11-27T23:51:14.797Z,-2.41
2017-11-27T23:53:42.498Z,-2.36
2017-11-27T23:56:10.269Z,-2.36
2017-11-27T23:58:38.317Z,-2.21
